sensor_id;sensor_type;location;lat;lon;timestamp;P1;P2;P0
13030;PMS7003;6582;54.644;9.760;2023-02-28T00:00:03;112.4;105.2;
13030;PMS7003;6582;54.644;9.760;2023-02-28T00:05:03;114.8;107.5;
13030;PMS7003;6582;54.644;9.760;2023-02-28T00:10:02;109.5;102.9;
13030;PMS7003;6582;54.644;9.760;2023-02-28T00:15:03;116.9;111.3;
13030;PMS7003;6582;54.644;9.760;2023-02-28T00:20:02;112.8;107.2;
13030;PMS7003;6582;54.644;9.760;2023-02-28T00:25:03;99.6;93.5;
13030;PMS7003;6582;54.644;9.760;2023-02-28T00:30:02;92.6;88.0;
13030;PMS7003;6582;54.644;9.760;2023-02-28T00:35:07;107.4;104.2;
13030;PMS7003;6582;54.644;9.760;2023-02-28T00:40:02;123.6;121.6;
13030;PMS7003;6582;54.644;9.760;2023-02-28T00:45:03;122.3;119.2;
13030;PMS7003;6582;54.644;9.760;2023-02-28T00:50:02;122.7;119.8;
13030;PMS7003;6582;54.644;9.760;2023-02-28T00:55:03;140.8;139.3;
13030;PMS7003;6582;54.644;9.760;2023-02-28T01:00:02;149.6;148.2;
13030;PMS7003;6582;54.644;9.760;2023-02-28T01:05:02;144.0;142.2;
13030;PMS7003;6582;54.644;9.760;2023-02-28T01:10:02;161.1;160.5;
13030;PMS7003;6582;54.644;9.760;2023-02-28T01:15:09;167.7;167.1;
13030;PMS7003;6582;54.644;9.760;2023-02-28T01:20:07;170.8;170.2;
13030;PMS7003;6582;54.644;9.760;2023-02-28T01:25:03;178.5;177.8;
13030;PMS7003;6582;54.644;9.760;2023-02-28T01:30:03;172.8;172.5;
13030;PMS7003;6582;54.644;9.760;2023-02-28T01:35:03;160.9;160.6;
13030;PMS7003;6582;54.644;9.760;2023-02-28T01:40:02;157.4;157.4;
13030;PMS7003;6582;54.644;9.760;2023-02-28T01:45:17;143.8;141.2;
13030;PMS7003;6582;54.644;9.760;2023-02-28T01:50:02;130.6;128.1;
13030;PMS7003;6582;54.644;9.760;2023-02-28T01:55:02;123.9;118.8;
13030;PMS7003;6582;54.644;9.760;2023-02-28T02:00:05;105.8;99.4;
13030;PMS7003;6582;54.644;9.760;2023-02-28T02:05:07;79.8;73.4;
13030;PMS7003;6582;54.644;9.760;2023-02-28T02:10:04;66.4;62.5;
13030;PMS7003;6582;54.644;9.760;2023-02-28T02:15:05;90.2;86.3;
13030;PMS7003;6582;54.644;9.760;2023-02-28T02:35:11;266.4;265.0;
13030;PMS7003;6582;54.644;9.760;2023-02-28T02:55:02;85.0;78.0;
13030;PMS7003;6582;54.644;9.760;2023-02-28T03:00:03;156.6;153.1;
13030;PMS7003;6582;54.644;9.760;2023-02-28T03:05:05;175.3;172.5;
13030;PMS7003;6582;54.644;9.760;2023-02-28T03:10:02;201.1;198.8;
13030;PMS7003;6582;54.644;9.760;2023-02-28T03:15:07;203.1;201.1;
13030;PMS7003;6582;54.644;9.760;2023-02-28T03:20:05;193.9;192.3;
13030;PMS7003;6582;54.644;9.760;2023-02-28T03:25:06;168.8;164.5;
13030;PMS7003;6582;54.644;9.760;2023-02-28T03:30:09;130.5;126.5;
13030;PMS7003;6582;54.644;9.760;2023-02-28T03:35:09;89.8;83.7;
13030;PMS7003;6582;54.644;9.760;2023-02-28T03:40:04;99.7;93.8;
13030;PMS7003;6582;54.644;9.760;2023-02-28T03:45:04;135.1;130.2;
13030;PMS7003;6582;54.644;9.760;2023-02-28T04:25:07;77.4;77.4;
13030;PMS7003;6582;54.644;9.760;2023-02-28T04:30:02;88.0;86.9;
13030;PMS7003;6582;54.644;9.760;2023-02-28T04:35:02;91.2;90.0;
13030;PMS7003;6582;54.644;9.760;2023-02-28T04:40:02;89.7;88.6;
13030;PMS7003;6582;54.644;9.760;2023-02-28T04:45:02;49.0;47.9;
13030;PMS7003;6582;54.644;9.760;2023-02-28T07:50:02;71.6;71.6;
13030;PMS7003;6582;54.644;9.760;2023-02-28T07:55:03;135.4;135.4;
13030;PMS7003;6582;54.644;9.760;2023-02-28T08:00:03;203.9;203.9;
13030;PMS7003;6582;54.644;9.760;2023-02-28T08:05:03;272.8;272.8;
13030;PMS7003;6582;54.644;9.760;2023-02-28T08:10:02;303.6;302.3;
13030;PMS7003;6582;54.644;9.760;2023-02-28T08:15:02;255.2;252.4;
13030;PMS7003;6582;54.644;9.760;2023-02-28T08:20:02;206.8;201.6;
13030;PMS7003;6582;54.644;9.760;2023-02-28T08:25:02;142.4;137.2;
13030;PMS7003;6582;54.644;9.760;2023-02-28T08:30:02;74.4;69.2;
13030;PMS7003;6582;54.644;9.760;2023-02-28T08:35:07;62.8;56.4;
13030;PMS7003;6582;54.644;9.760;2023-02-28T08:40:03;52.7;46.4;
13030;PMS7003;6582;54.644;9.760;2023-02-28T08:45:13;39.0;35.0;
13030;PMS7003;6582;54.644;9.760;2023-02-28T08:50:03;35.0;31.0;
13030;PMS7003;6582;54.644;9.760;2023-02-28T08:55:02;33.8;29.8;
13030;PMS7003;6582;54.644;9.760;2023-02-28T09:00:02;14.7;13.1;
13030;PMS7003;6582;54.644;9.760;2023-02-28T11:35:03;5.6;5.6;
13030;PMS7003;6582;54.644;9.760;2023-02-28T11:40:02;6.5;6.5;
13030;PMS7003;6582;54.644;9.760;2023-02-28T11:45:07;6.0;6.0;
13030;PMS7003;6582;54.644;9.760;2023-02-28T12:15:21;2.4;2.4;
13030;PMS7003;6582;54.644;9.760;2023-02-28T12:35:10;6.2;6.2;
13030;PMS7003;6582;54.644;9.760;2023-02-28T12:40:03;27.4;25.3;
13030;PMS7003;6582;54.644;9.760;2023-02-28T12:45:19;22.9;21.5;
13030;PMS7003;6582;54.644;9.760;2023-02-28T12:50:04;26.1;24.7;
13030;PMS7003;6582;54.644;9.760;2023-02-28T13:15:18;75.0;62.2;
13030;PMS7003;6582;54.644;9.760;2023-02-28T14:55:04;67.6;57.2;
13030;PMS7003;6582;54.644;9.760;2023-02-28T15:15:01;88.6;79.8;
13030;PMS7003;6582;54.644;9.760;2023-02-28T15:20:01;92.0;84.9;
13030;PMS7003;6582;54.644;9.760;2023-02-28T15:25:06;123.4;117.8;
13030;PMS7003;6582;54.644;9.760;2023-02-28T15:30:06;116.9;111.9;
13030;PMS7003;6582;54.644;9.760;2023-02-28T15:55:12;131.8;131.8;
13030;PMS7003;6582;54.644;9.760;2023-02-28T16:00:02;133.5;133.5;
13030;PMS7003;6582;54.644;9.760;2023-02-28T16:25:01;163.6;163.6;
13030;PMS7003;6582;54.644;9.760;2023-02-28T16:30:01;165.1;165.1;
13030;PMS7003;6582;54.644;9.760;2023-02-28T16:35:01;171.1;170.7;
13030;PMS7003;6582;54.644;9.760;2023-02-28T16:40:02;177.6;177.3;
13030;PMS7003;6582;54.644;9.760;2023-02-28T16:45:01;172.8;172.6;
13030;PMS7003;6582;54.644;9.760;2023-02-28T16:50:01;174.1;173.7;
13030;PMS7003;6582;54.644;9.760;2023-02-28T16:55:06;172.7;172.2;
13030;PMS7003;6582;54.644;9.760;2023-02-28T17:00:02;170.6;170.3;
13030;PMS7003;6582;54.644;9.760;2023-02-28T17:05:01;162.8;162.5;
13030;PMS7003;6582;54.644;9.760;2023-02-28T17:10:01;163.2;162.8;
13030;PMS7003;6582;54.644;9.760;2023-02-28T17:15:06;158.3;157.7;
13030;PMS7003;6582;54.644;9.760;2023-02-28T17:35:02;120.8;119.4;
13030;PMS7003;6582;54.644;9.760;2023-02-28T17:40:05;114.8;112.5;
13030;PMS7003;6582;54.644;9.760;2023-02-28T17:45:06;135.3;133.7;
13030;PMS7003;6582;54.644;9.760;2023-02-28T17:50:02;157.4;156.2;
13030;PMS7003;6582;54.644;9.760;2023-02-28T17:55:03;171.8;170.9;
13030;PMS7003;6582;54.644;9.760;2023-02-28T18:00:11;200.0;199.4;
13030;PMS7003;6582;54.644;9.760;2023-02-28T18:05:01;238.8;238.6;
13030;PMS7003;6582;54.644;9.760;2023-02-28T18:10:07;253.0;252.4;
13030;PMS7003;6582;54.644;9.760;2023-02-28T18:15:01;292.0;291.4;
13030;PMS7003;6582;54.644;9.760;2023-02-28T18:20:01;318.4;317.6;
13030;PMS7003;6582;54.644;9.760;2023-02-28T18:25:03;343.5;342.4;
13030;PMS7003;6582;54.644;9.760;2023-02-28T18:30:02;338.7;337.6;
13030;PMS7003;6582;54.644;9.760;2023-02-28T18:35:02;339.3;338.3;
13030;PMS7003;6582;54.644;9.760;2023-02-28T18:40:01;306.2;304.8;
13030;PMS7003;6582;54.644;9.760;2023-02-28T18:45:01;294.3;292.8;
13030;PMS7003;6582;54.644;9.760;2023-02-28T18:50:02;256.5;255.4;
13030;PMS7003;6582;54.644;9.760;2023-02-28T18:55:03;278.8;277.5;
13030;PMS7003;6582;54.644;9.760;2023-02-28T19:00:01;305.8;304.9;
13030;PMS7003;6582;54.644;9.760;2023-02-28T19:05:02;313.3;312.6;
13030;PMS7003;6582;54.644;9.760;2023-02-28T19:10:01;317.8;317.1;
13030;PMS7003;6582;54.644;9.760;2023-02-28T19:15:02;347.1;346.4;
13030;PMS7003;6582;54.644;9.760;2023-02-28T19:20:13;341.8;341.0;
13030;PMS7003;6582;54.644;9.760;2023-02-28T19:25:04;325.2;324.2;
13030;PMS7003;6582;54.644;9.760;2023-02-28T19:30:02;322.0;320.5;
13030;PMS7003;6582;54.644;9.760;2023-02-28T19:35:01;304.2;302.2;
13030;PMS7003;6582;54.644;9.760;2023-02-28T19:40:01;272.2;269.5;
13030;PMS7003;6582;54.644;9.760;2023-02-28T19:45:01;247.2;244.8;
13030;PMS7003;6582;54.644;9.760;2023-02-28T19:50:01;241.9;239.4;
13030;PMS7003;6582;54.644;9.760;2023-02-28T19:55:01;244.8;242.2;
13030;PMS7003;6582;54.644;9.760;2023-02-28T20:00:01;255.0;252.6;
13030;PMS7003;6582;54.644;9.760;2023-02-28T20:05:02;270.6;268.8;
13030;PMS7003;6582;54.644;9.760;2023-02-28T20:10:01;235.1;232.2;
13030;PMS7003;6582;54.644;9.760;2023-02-28T20:15:06;212.0;209.0;
13030;PMS7003;6582;54.644;9.760;2023-02-28T20:20:06;167.9;164.1;
13030;PMS7003;6582;54.644;9.760;2023-02-28T20:25:01;150.1;146.7;
13030;PMS7003;6582;54.644;9.760;2023-02-28T20:30:02;144.6;141.2;
13030;PMS7003;6582;54.644;9.760;2023-02-28T20:35:02;186.4;184.2;
13030;PMS7003;6582;54.644;9.760;2023-02-28T20:40:01;208.7;206.8;
13030;PMS7003;6582;54.644;9.760;2023-02-28T20:45:01;237.2;236.5;
13030;PMS7003;6582;54.644;9.760;2023-02-28T20:50:01;233.4;232.2;
13030;PMS7003;6582;54.644;9.760;2023-02-28T20:55:01;228.4;227.4;
13030;PMS7003;6582;54.644;9.760;2023-02-28T21:00:01;213.8;212.7;
13030;PMS7003;6582;54.644;9.760;2023-02-28T21:05:01;195.2;193.9;
13030;PMS7003;6582;54.644;9.760;2023-02-28T21:10:01;208.0;206.6;
13030;PMS7003;6582;54.644;9.760;2023-02-28T21:15:07;213.2;212.6;
13030;PMS7003;6582;54.644;9.760;2023-02-28T21:20:01;204.6;204.0;
13030;PMS7003;6582;54.644;9.760;2023-02-28T21:25:01;172.8;171.6;
13030;PMS7003;6582;54.644;9.760;2023-02-28T21:30:02;136.9;136.1;
13030;PMS7003;6582;54.644;9.760;2023-02-28T21:35:01;105.4;103.5;
13030;PMS7003;6582;54.644;9.760;2023-02-28T21:40:02;92.8;89.8;
13030;PMS7003;6582;54.644;9.760;2023-02-28T21:45:01;86.6;82.4;
13030;PMS7003;6582;54.644;9.760;2023-02-28T21:50:01;78.9;75.5;
13030;PMS7003;6582;54.644;9.760;2023-02-28T22:00:01;55.8;53.4;
13030;PMS7003;6582;54.644;9.760;2023-02-28T22:05:01;27.4;26.2;
